Time;durP1;ratioP1;P1;durP2;ratioP2;P2;SDS_P1;SDS_P2;PMS_P1;PMS_P2;Temp;Humidity;BMP_temperature;BMP_pressure;BME280_temperature;BME280_humidity;BME280_pressure;Samples;Min_cycle;Max_cycle;Signal;HPM_P1;HPM_P2
2023/04/13 11:37:02;;;;;;;25.27;7.25;;;;;;;25.09;30.61;92583.56;516059;27;20376;-48
2023/04/13 11:37:18;;;;;;;26.13;7.65;;;;;;;24.89;32.66;92585.13;518496;28;11737;-44
2023/04/13 11:37:38;;;;;;;34.83;8.77;;;;;;;24.71;30.79;92585.34;518269;28;11189;-42
2023/04/13 11:39:13;;;;;;;49.47;12.00;;;;;;;25.77;30.91;92584.63;509028;27;20130;-45
2023/04/13 11:39:30;;;;;;;44.08;11.95;;;;;;;25.61;31.13;92584.22;525161;27;12245;-43
2023/04/13 11:44:16;;;;;;;1734.32;384.00;;;;;;;22.73;27.37;92580.38;525344;27;20916;-60
2023/04/13 11:45:30;;;;;;;69.03;52.10;;;;;;;25.00;29.80;92575.53;522776;28;20381;-47
2023/04/13 11:45:46;;;;;;;95.97;86.35;;;;;;;24.64;26.37;92566.78;523739;28;1268;-31
2023/04/13 11:46:02;;;;;;;122.70;68.75;;;;;;;24.25;27.79;92569.88;523489;28;1375;-56
2023/04/13 11:46:23;;;;;;;54.60;9.13;;;;;;;24.40;26.06;92564.00;523381;28;802;-48
2023/04/13 11:46:39;;;;;;;3.70;2.17;;;;;;;24.57;25.44;92563.06;523245;28;1419;-49
2023/04/13 11:46:55;;;;;;;3.33;1.80;;;;;;;24.74;25.43;92567.06;523137;28;1134;-47
2023/04/13 11:47:14;;;;;;;3.65;2.17;;;;;;;24.93;24.54;92566.19;523810;28;882;-50
2023/04/13 11:47:31;;;;;;;4.85;2.42;;;;;;;24.99;23.12;92566.38;523030;28;1143;-50
2023/04/13 11:47:47;;;;;;;3.63;2.03;;;;;;;24.85;23.23;92565.97;522357;28;1608;-50
2023/04/13 11:48:04;;;;;;;4.28;1.67;;;;;;;24.83;23.11;92565.94;522796;28;1183;-49
2023/04/13 11:48:21;;;;;;;5.63;1.88;;;;;;;24.93;23.34;92560.53;519314;28;927;-52
2023/04/13 11:48:36;;;;;;;3.67;1.85;;;;;;;25.07;22.71;92577.88;517406;28;884;-47
2023/04/13 11:48:52;;;;;;;2.00;1.80;;;;;;;25.24;22.78;92571.25;513799;28;11246;-50
2023/04/13 11:49:07;;;;;;;2.75;1.85;;;;;;;25.41;22.41;92564.63;511193;28;1591;-48
2023/04/13 11:49:23;;;;;;;2.37;1.60;;;;;;;25.54;21.74;92577.72;510680;28;11307;-48
2023/04/13 11:49:40;;;;;;;1.85;1.35;;;;;;;25.72;22.14;92576.72;512189;28;770;-48
2023/04/13 11:49:56;;;;;;;2.65;1.75;;;;;;;25.88;22.27;92568.63;511763;28;811;-47
2023/04/13 11:50:12;;;;;;;2.53;1.93;;;;;;;25.97;22.41;92575.88;510596;28;1321;-47
2023/04/13 11:50:28;;;;;;;2.28;1.80;;;;;;;26.01;21.51;92573.16;512357;28;1597;-47
2023/04/13 11:50:43;;;;;;;2.30;1.83;;;;;;;26.13;21.38;92579.84;513859;28;826;-46
2023/04/13 11:50:59;;;;;;;1.95;1.80;;;;;;;26.13;22.38;92576.28;511797;28;1023;-47
2023/04/13 11:51:15;;;;;;;2.50;1.77;;;;;;;26.12;22.12;92575.56;513226;28;928;-49
2023/04/13 11:51:31;;;;;;;2.95;2.00;;;;;;;26.22;22.89;92589.97;513401;28;838;-51
2023/04/13 11:51:47;;;;;;;2.08;1.88;;;;;;;26.17;22.36;92584.88;510960;29;906;-47
2023/04/13 11:52:03;;;;;;;2.37;1.80;;;;;;;25.94;24.67;92577.25;509627;28;1465;-48
2023/04/13 11:52:18;;;;;;;3.33;1.77;;;;;;;25.87;24.95;92578.47;511404;28;874;-47
2023/04/13 11:52:34;;;;;;;2.70;1.50;;;;;;;25.94;24.71;92577.97;511859;28;1193;-47
2023/04/13 11:52:56;;;;;;;1.80;1.50;;;;;;;25.85;24.67;92559.38;512334;28;1054;-48
2023/04/13 11:53:12;;;;;;;1.98;1.75;;;;;;;25.93;23.56;92581.44;511124;28;1165;-47
2023/04/13 11:53:28;;;;;;;1.77;1.67;;;;;;;25.92;23.14;92574.38;511441;29;929;-47
2023/04/13 11:53:45;;;;;;;2.47;1.63;;;;;;;25.73;23.44;92566.84;511611;28;847;-47
2023/04/13 11:54:01;;;;;;;2.05;1.58;;;;;;;25.56;21.87;92566.44;513650;28;1232;-48
2023/04/13 11:54:17;;;;;;;1.95;1.65;;;;;;;25.44;22.39;92580.28;514587;28;1434;-47
2023/04/13 11:54:32;;;;;;;2.28;1.83;;;;;;;25.42;23.15;92583.06;515174;28;907;-47
2023/04/13 11:54:49;;;;;;;2.90;1.90;;;;;;;25.44;23.41;92588.78;514409;28;1732;-47
2023/04/13 11:55:06;;;;;;;3.10;1.85;;;;;;;25.46;25.60;92580.34;517873;28;1200;-47
2023/04/13 11:55:22;;;;;;;2.33;1.67;;;;;;;25.43;25.29;92573.19;517370;28;813;-48
2023/04/13 11:55:38;;;;;;;2.10;1.80;;;;;;;25.52;24.74;92577.66;515377;28;1236;-47
2023/04/13 11:55:54;;;;;;;2.38;1.75;;;;;;;25.50;24.58;92588.19;515706;28;1988;-48
2023/04/13 11:56:09;;;;;;;2.40;1.60;;;;;;;25.45;22.21;92587.38;508476;28;3184;-47
2023/04/13 11:56:25;;;;;;;2.03;1.83;;;;;;;25.43;22.74;92586.59;514144;28;877;-47
2023/04/13 11:56:40;;;;;;;2.00;1.77;;;;;;;25.47;22.96;92578.94;515055;28;1275;-47
2023/04/13 11:56:56;;;;;;;2.05;1.60;;;;;;;25.44;22.77;92588.03;514946;28;856;-46
2023/04/13 11:57:12;;;;;;;2.45;1.73;;;;;;;25.48;23.51;92586.03;514189;28;1589;-47
2023/04/13 11:57:27;;;;;;;3.72;1.88;;;;;;;25.49;22.57;92583.94;511693;28;1886;-47
2023/04/13 11:57:43;;;;;;;3.73;1.83;;;;;;;25.59;23.13;92584.19;512622;28;1089;-47
2023/04/13 11:58:04;;;;;;;2.88;1.63;;;;;;;25.68;23.30;92582.28;515351;28;892;-46
2023/04/13 11:58:20;;;;;;;1.98;1.50;;;;;;;25.69;23.38;92569.56;515942;28;1239;-46
2023/04/13 11:58:38;;;;;;;2.80;1.63;;;;;;;25.82;23.77;92583.31;517407;28;828;-47
2023/04/13 11:58:53;;;;;;;3.88;1.60;;;;;;;25.83;23.24;92578.41;517219;28;954;-46
2023/04/13 11:59:08;;;;;;;2.90;1.60;;;;;;;25.80;23.04;92580.44;516407;28;781;-46
2023/04/13 11:59:25;;;;;;;2.63;1.60;;;;;;;25.73;22.86;92578.84;518880;28;825;-47
2023/04/13 11:59:41;;;;;;;3.60;1.80;;;;;;;25.68;23.41;92579.44;518006;28;1524;-47
2023/04/13 11:59:56;;;;;;;4.22;1.90;;;;;;;25.52;23.81;92580.47;518926;28;1027;-47
2023/04/13 12:00:22;;;;;;;4.05;1.80;;;;;;;25.57;22.85;92581.31;519377;28;1392;-46
2023/04/13 12:00:39;;;;;;;4.35;2.00;;;;;;;25.69;24.34;92583.69;519367;28;1097;-47
2023/04/13 12:00:55;;;;;;;3.53;1.90;;;;;;;25.68;24.41;92576.63;518681;28;1604;-46
2023/04/13 12:01:13;;;;;;;3.38;1.88;;;;;;;25.78;23.98;92577.56;518728;28;1043;-47
2023/04/13 12:01:29;;;;;;;4.15;1.75;;;;;;;25.90;23.25;92577.16;519387;28;1049;-46
2023/04/13 12:01:48;;;;;;;3.05;1.70;;;;;;;25.97;23.09;92576.59;519285;28;993;-49
2023/04/13 12:02:05;;;;;;;3.13;1.70;;;;;;;25.99;22.91;92564.63;519314;28;1347;-47
2023/04/13 12:02:27;;;;;;;2.83;1.63;;;;;;;26.21;23.05;92582.13;517514;28;841;-47
2023/04/13 12:02:43;;;;;;;3.38;2.05;;;;;;;26.30;22.55;92575.25;517752;28;1079;-46
2023/04/13 12:02:59;;;;;;;3.40;1.92;;;;;;;26.35;22.12;92582.44;519497;28;881;-48
2023/04/13 12:03:16;;;;;;;2.20;1.67;;;;;;;26.26;20.77;92569.50;519146;28;880;-47
2023/04/13 12:03:34;;;;;;;2.25;1.77;;;;;;;26.08;20.57;92571.91;519456;28;1578;-47
2023/04/13 12:03:50;;;;;;;1.90;1.65;;;;;;;25.88;20.84;92571.44;519495;28;906;-47
2023/04/13 12:04:06;;;;;;;2.40;1.90;;;;;;;25.73;19.75;92572.50;518657;28;1623;-47
2023/04/13 12:04:21;;;;;;;2.75;1.80;;;;;;;25.70;19.49;92571.00;518939;28;1463;-47
2023/04/13 12:04:39;;;;;;;2.65;1.60;;;;;;;25.68;20.20;92568.88;519437;28;781;-46
2023/04/13 12:04:55;;;;;;;2.80;2.00;;;;;;;25.68;20.71;92568.88;518951;28;994;-46
2023/04/13 12:05:24;;;;;;;2.55;1.75;;;;;;;25.48;20.44;92565.53;518373;28;2439;-47
2023/04/13 12:05:43;;;;;;;2.90;1.80;;;;;;;25.25;20.35;92557.88;519296;28;876;-46
2023/04/13 12:06:02;;;;;;;2.78;1.70;;;;;;;25.07;21.82;92563.03;518216;28;1419;-47
2023/04/13 12:06:18;;;;;;;2.67;1.80;;;;;;;25.06;23.02;92570.06;519032;28;1375;-46
2023/04/13 12:06:33;;;;;;;2.87;1.73;;;;;;;25.09;23.03;92563.81;516875;28;1037;-47
2023/04/13 12:06:49;;;;;;;2.88;1.60;;;;;;;25.05;24.92;92562.97;517358;28;833;-47
2023/04/13 12:07:11;;;;;;;2.50;1.70;;;;;;;25.08;25.11;92567.31;515172;28;922;-46
2023/04/13 12:07:26;;;;;;;3.58;1.90;;;;;;;25.11;23.31;92565.97;517227;28;1391;-47
2023/04/13 12:07:41;;;;;;;4.03;2.00;;;;;;;25.14;22.69;92571.00;517308;28;795;-47
2023/04/13 12:07:57;;;;;;;3.67;1.87;;;;;;;25.13;22.60;92577.31;518902;28;1372;-47
2023/04/13 12:08:22;;;;;;;3.60;1.70;;;;;;;25.10;23.30;92575.84;518907;28;1863;-47
2023/04/13 12:08:38;;;;;;;4.97;1.70;;;;;;;25.10;23.03;92568.06;517738;28;929;-47
2023/04/13 12:09:00;;;;;;;3.27;1.63;;;;;;;25.12;23.51;92562.47;517296;28;897;-47
2023/04/13 12:09:16;;;;;;;2.08;1.80;;;;;;;25.16;23.54;92567.50;517045;28;936;-46
2023/04/13 12:09:41;;;;;;;2.20;1.80;;;;;;;25.08;23.05;92559.53;517386;28;894;-47
2023/04/13 12:09:56;;;;;;;2.45;1.88;;;;;;;25.06;22.59;92564.44;519363;28;838;-46
2023/04/13 12:10:18;;;;;;;3.53;1.70;;;;;;;25.07;22.97;92563.75;517201;28;856;-46
2023/04/13 12:10:35;;;;;;;2.85;1.65;;;;;;;25.07;22.16;92560.22;513593;28;1032;-46
2023/04/13 12:11:03;;;;;;;2.45;1.63;;;;;;;24.81;21.48;92560.22;517214;28;1453;-46
2023/04/13 12:11:20;;;;;;;2.70;1.55;;;;;;;24.74;21.61;92556.50;517028;28;892;-47
2023/04/13 12:11:39;;;;;;;2.20;1.60;;;;;;;24.73;21.60;92554.34;516717;28;1048;-46
2023/04/13 12:11:56;;;;;;;2.25;1.70;;;;;;;24.65;21.70;92549.19;517188;28;914;-47
2023/04/13 12:12:17;;;;;;;3.00;1.80;;;;;;;24.80;22.49;92561.59;518705;28;1554;-46
2023/04/13 12:12:33;;;;;;;2.75;1.52;;;;;;;24.86;21.31;92556.13;518775;28;1123;-46
2023/04/13 12:12:58;;;;;;;3.78;1.73;;;;;;;24.84;21.30;92551.13;517103;28;850;-46
2023/04/13 12:13:14;;;;;;;2.40;1.90;;;;;;;24.96;21.08;92553.56;517127;28;918;-46
2023/04/13 12:13:43;;;;;;;2.20;1.73;;;;;;;25.03;21.06;92554.44;516306;28;1109;-47
2023/04/13 12:13:59;;;;;;;2.35;1.80;;;;;;;24.92;21.51;92559.13;517448;28;1286;-46
2023/04/13 12:14:21;;;;;;;2.87;1.90;;;;;;;24.78;23.18;92567.19;517829;28;797;-47
2023/04/13 12:14:37;;;;;;;3.42;1.80;;;;;;;24.65;23.64;92563.28;517650;28;1425;-47
2023/04/13 12:14:53;;;;;;;4.90;1.87;;;;;;;24.45;24.63;92556.38;516682;28;1707;-46
2023/04/13 12:15:09;;;;;;;5.00;1.95;;;;;;;24.41;24.38;92571.06;515514;28;974;-47
2023/04/13 12:15:29;;;;;;;2.73;2.43;;;;;;;24.35;24.66;92562.44;515783;28;1103;-46
2023/04/13 12:15:46;;;;;;;3.92;3.60;;;;;;;24.33;25.70;92561.66;518921;28;951;-47
2023/04/13 12:16:01;;;;;;;4.30;3.83;;;;;;;24.34;25.70;92566.66;517856;28;884;-46
2023/04/13 12:16:26;;;;;;;4.60;3.42;;;;;;;24.40;26.68;92560.44;519119;28;1100;-48
2023/04/13 12:16:47;;;;;;;4.50;2.92;;;;;;;24.30;24.81;92549.56;518768;28;955;-47
2023/04/13 12:17:02;;;;;;;4.75;2.58;;;;;;;24.16;24.63;92554.81;519170;28;888;-48
2023/04/13 12:17:17;;;;;;;3.03;2.50;;;;;;;24.04;25.10;92548.78;517287;28;1211;-46
2023/04/13 12:17:34;;;;;;;3.33;2.27;;;;;;;24.01;24.79;92567.75;517762;28;1735;-47
2023/04/13 12:17:53;;;;;;;5.50;2.15;;;;;;;23.92;23.20;92554.78;519590;28;1679;-47
2023/04/13 12:18:11;;;;;;;3.90;1.98;;;;;;;23.96;23.94;92560.53;518288;28;880;-46
2023/04/13 12:18:26;;;;;;;3.17;1.73;;;;;;;23.98;24.20;92552.16;519457;28;1181;-47
2023/04/13 12:18:43;;;;;;;2.30;1.77;;;;;;;23.97;23.69;92555.63;518302;28;1635;-48
2023/04/13 12:19:08;;;;;;;2.20;1.63;;;;;;;24.03;23.22;92559.34;517917;28;979;-46
2023/04/13 12:19:24;;;;;;;2.88;1.90;;;;;;;24.10;24.00;92549.00;517582;28;1687;-47
2023/04/13 12:19:40;;;;;;;2.60;1.77;;;;;;;24.14;24.66;92554.75;514957;28;981;-46
2023/04/13 12:19:57;;;;;;;2.40;1.70;;;;;;;24.21;24.71;92552.84;517800;28;1403;-47
2023/04/13 12:20:14;;;;;;;1.90;1.70;;;;;;;24.23;27.81;92547.25;518446;28;1786;-46
2023/04/13 12:20:38;;;;;;;3.25;1.90;;;;;;;24.20;27.55;92554.22;518772;28;1378;-47
2023/04/13 12:20:53;;;;;;;3.83;2.10;;;;;;;24.20;26.90;92554.22;519748;28;992;-47
2023/04/13 12:21:14;;;;;;;2.35;1.92;;;;;;;24.14;25.46;92554.03;519062;28;1164;-48
2023/04/13 12:21:30;;;;;;;4.05;1.70;;;;;;;24.16;25.48;92562.56;518264;28;1795;-46
2023/04/13 12:21:55;;;;;;;5.00;2.00;;;;;;;24.17;25.30;92553.44;519356;28;923;-47
2023/04/13 12:22:10;;;;;;;2.78;1.90;;;;;;;24.21;24.98;92558.47;518187;28;1349;-48
2023/04/13 12:22:38;;;;;;;2.97;1.90;;;;;;;24.30;25.59;92555.22;518836;28;1400;-47
2023/04/13 12:22:53;;;;;;;3.33;1.80;;;;;;;24.26;27.01;92562.84;518401;28;1790;-47
2023/04/13 12:23:22;;;;;;;3.50;1.80;;;;;;;24.29;26.22;92558.72;519553;28;1637;-46
2023/04/13 12:23:37;;;;;;;2.35;1.88;;;;;;;24.35;25.75;92561.69;519289;28;810;-47
2023/04/13 12:23:54;;;;;;;2.60;1.70;;;;;;;24.36;24.36;92541.31;519101;28;873;-47
2023/04/13 12:24:09;;;;;;;1.95;1.55;;;;;;;24.47;25.13;92559.94;519033;28;1076;-46
2023/04/13 12:24:33;;;;;;;2.53;1.80;;;;;;;24.54;25.28;92552.38;519234;28;1348;-46
2023/04/13 12:24:49;;;;;;;5.47;1.95;;;;;;;24.49;24.69;92545.19;518577;28;1230;-47
2023/04/13 12:25:21;;;;;;;5.15;1.70;;;;;;;24.57;22.85;92545.41;519221;28;866;-46
2023/04/13 12:25:36;;;;;;;2.97;1.98;;;;;;;24.64;22.84;92561.13;517578;28;858;-46
2023/04/13 12:26:04;;;;;;;5.40;2.10;;;;;;;24.63;22.66;92554.75;519056;28;1100;-47
2023/04/13 12:26:20;;;;;;;3.40;1.70;;;;;;;24.62;22.66;92550.50;519529;28;821;-45
2023/04/13 12:26:37;;;;;;;3.10;1.83;;;;;;;24.60;24.76;92555.38;518171;28;1203;-46
2023/04/13 12:26:53;;;;;;;4.15;2.17;;;;;;;24.51;23.42;92548.06;520088;28;1388;-47
2023/04/13 12:27:08;;;;;;;3.25;2.35;;;;;;;24.43;24.16;92550.66;520626;28;1353;-47
2023/04/13 12:27:24;;;;;;;3.17;2.53;;;;;;;24.40;23.92;92551.97;517462;28;817;-47
2023/04/13 12:27:40;;;;;;;4.22;2.90;;;;;;;24.41;25.17;92542.13;518706;28;1621;-47
2023/04/13 12:27:56;;;;;;;4.15;2.60;;;;;;;24.24;26.15;92532.47;519175;28;1215;-47
2023/04/13 12:28:12;;;;;;;2.97;2.00;;;;;;;24.33;25.17;92553.19;519207;28;801;-47
2023/04/13 12:28:28;;;;;;;2.00;1.80;;;;;;;24.19;24.20;92528.09;519358;28;947;-47
2023/04/13 12:28:46;;;;;;;2.35;1.75;;;;;;;24.31;24.26;92550.31;518755;28;1582;-47
2023/04/13 12:29:04;;;;;;;2.90;2.08;;;;;;;24.25;26.30;92552.97;517451;28;1715;-47
2023/04/13 12:29:21;;;;;;;3.83;2.67;;;;;;;24.17;25.27;92544.97;519079;28;873;-48
2023/04/13 12:29:39;;;;;;;4.20;2.60;;;;;;;24.04;26.13;92549.53;518329;28;1337;-47
2023/04/13 12:30:03;;;;;;;3.95;2.50;;;;;;;23.93;24.59;92547.06;520743;28;1312;-47
2023/04/13 12:30:20;;;;;;;2.92;2.40;;;;;;;23.85;24.29;92550.34;520044;28;1285;-46
2023/04/13 12:30:35;;;;;;;2.83;2.20;;;;;;;23.70;24.11;92556.91;521532;28;935;-47
2023/04/13 12:30:51;;;;;;;3.37;2.33;;;;;;;23.63;24.34;92560.22;519781;28;1209;-47
2023/04/13 12:31:11;;;;;;;3.53;2.30;;;;;;;23.54;25.79;92559.22;519081;28;1335;-47
2023/04/13 12:31:32;;;;;;;3.05;2.25;;;;;;;23.55;27.04;92562.75;517531;28;860;-46
2023/04/13 12:31:48;;;;;;;2.95;2.40;;;;;;;23.48;26.30;92559.03;518189;28;919;-47
2023/04/13 12:32:07;;;;;;;4.03;2.43;;;;;;;23.47;26.21;92562.50;520354;28;1368;-47
2023/04/13 12:32:25;;;;;;;4.32;2.63;;;;;;;23.45;25.32;92554.72;517161;28;862;-47
2023/04/13 12:32:51;;;;;;;5.93;2.40;;;;;;;23.35;25.05;92554.38;517203;28;1420;-46
2023/04/13 12:33:08;;;;;;;3.92;2.38;;;;;;;23.30;24.06;92559.13;517396;28;1775;-47
2023/04/13 12:33:24;;;;;;;3.25;2.10;;;;;;;23.30;26.67;92567.56;518999;28;939;-47
2023/04/13 12:33:39;;;;;;;3.03;2.00;;;;;;;23.29;28.02;92563.31;518135;28;1407;-47
2023/04/13 12:33:55;;;;;;;3.10;2.07;;;;;;;23.23;26.43;92556.78;517876;28;1110;-46
2023/04/13 12:34:10;;;;;;;2.63;2.05;;;;;;;23.23;29.09;92559.59;518302;28;1128;-48
2023/04/13 12:34:26;;;;;;;2.20;2.00;;;;;;;23.21;28.64;92556.69;519474;28;828;-46
2023/04/13 12:34:42;;;;;;;3.10;2.15;;;;;;;23.28;27.88;92558.34;518676;28;836;-47
2023/04/13 12:34:58;;;;;;;3.53;2.20;;;;;;;23.21;28.44;92554.63;519286;28;1066;-47
2023/04/13 12:35:14;;;;;;;3.35;2.08;;;;;;;23.20;27.30;92555.97;518086;28;836;-48
2023/04/13 12:35:30;;;;;;;3.88;1.92;;;;;;;23.16;25.78;92552.31;517457;28;924;-48
2023/04/13 12:35:45;;;;;;;2.85;2.05;;;;;;;23.17;25.64;92554.47;518250;28;1512;-47
2023/04/13 12:36:01;;;;;;;2.83;2.10;;;;;;;23.10;25.75;92543.66;518365;28;925;-47
2023/04/13 12:36:16;;;;;;;3.30;1.83;;;;;;;23.16;26.62;92552.31;518462;28;868;-46
2023/04/13 12:36:34;;;;;;;3.27;1.80;;;;;;;23.03;26.29;92537.09;517398;28;898;-48
2023/04/13 12:36:50;;;;;;;3.20;2.05;;;;;;;23.04;26.82;92551.91;517723;28;954;-48
2023/04/13 12:37:06;;;;;;;3.42;2.17;;;;;;;23.05;27.07;92547.69;517859;28;1202;-46
2023/04/13 12:37:21;;;;;;;3.53;2.20;;;;;;;22.93;27.28;92553.66;518905;28;1266;-48
2023/04/13 12:37:43;;;;;;;3.30;2.15;;;;;;;22.96;27.25;92548.81;517470;28;774;-46
2023/04/13 12:37:59;;;;;;;3.63;2.33;;;;;;;22.94;28.09;92552.28;518477;28;1087;-48
2023/04/13 12:38:16;;;;;;;4.72;2.60;;;;;;;22.96;29.02;92549.53;518350;28;1154;-47
2023/04/13 12:38:32;;;;;;;5.13;2.83;;;;;;;23.00;29.44;92546.16;517587;28;1568;-47
2023/04/13 12:38:47;;;;;;;5.03;2.90;;;;;;;22.98;29.80;92554.50;518606;28;892;-49
2023/04/13 12:39:03;;;;;;;3.20;2.38;;;;;;;22.98;27.85;92552.41;518084;28;979;-47
2023/04/13 12:39:19;;;;;;;2.80;2.10;;;;;;;23.01;27.61;92547.56;518556;28;925;-47
2023/04/13 12:39:35;;;;;;;2.75;2.20;;;;;;;23.00;28.06;92549.66;517349;28;883;-47
2023/04/13 12:39:50;;;;;;;2.80;2.00;;;;;;;22.99;27.04;92553.13;518354;28;1148;-47
2023/04/13 12:40:17;;;;;;;3.83;2.13;;;;;;;22.93;26.06;92555.75;519389;28;829;-47
2023/04/13 12:40:32;;;;;;;4.28;2.13;;;;;;;22.86;25.76;92548.47;517678;28;1710;-47
2023/04/13 12:40:48;;;;;;;2.70;2.00;;;;;;;22.93;26.67;92552.94;518937;28;774;-48
2023/04/13 12:41:06;;;;;;;2.65;1.98;;;;;;;22.98;26.65;92555.22;517987;28;1230;-47
2023/04/13 12:41:22;;;;;;;3.53;2.10;;;;;;;23.01;26.61;92547.56;518384;28;1435;-48
2023/04/13 12:41:37;;;;;;;2.90;1.90;;;;;;;22.93;25.83;92545.22;519094;28;1168;-48
2023/04/13 12:41:52;;;;;;;3.35;2.15;;;;;;;22.95;24.73;92545.28;519287;28;900;-48
2023/04/13 12:42:08;;;;;;;3.43;2.07;;;;;;;22.93;25.02;92548.03;518962;28;828;-46
2023/04/13 12:42:23;;;;;;;4.75;1.80;;;;;;;22.88;24.73;92540.09;517371;28;811;-46
2023/04/13 12:42:39;;;;;;;5.60;2.00;;;;;;;22.82;25.09;92546.25;517481;28;817;-47
2023/04/13 12:42:55;;;;;;;3.63;2.10;;;;;;;22.78;24.60;92553.81;519019;28;988;-47
2023/04/13 12:43:10;;;;;;;3.80;2.10;;;;;;;22.77;25.26;92549.56;519042;28;826;-47
2023/04/13 12:43:26;;;;;;;4.20;2.30;;;;;;;22.77;24.38;92553.09;517385;28;894;-48
2023/04/13 12:43:41;;;;;;;3.80;2.43;;;;;;;22.80;24.95;92551.06;517311;28;947;-46
2023/04/13 12:43:57;;;;;;;3.15;2.30;;;;;;;22.82;24.95;92543.44;517313;28;939;-45
2023/04/13 12:44:13;;;;;;;2.90;2.17;;;;;;;22.86;25.09;92551.28;517651;28;1022;-49
2023/04/13 12:44:28;;;;;;;2.80;2.10;;;;;;;22.87;26.49;92542.19;517991;28;1634;-47
2023/04/13 12:44:44;;;;;;;2.33;1.90;;;;;;;22.81;25.06;92539.16;519416;28;761;-47
2023/04/13 12:45:01;;;;;;;2.20;1.70;;;;;;;22.83;24.27;92544.13;517378;28;845;-46
2023/04/13 12:45:16;;;;;;;2.90;1.95;;;;;;;22.83;24.97;92538.50;519001;28;1930;-47
2023/04/13 12:45:32;;;;;;;3.05;1.88;;;;;;;22.81;24.18;92536.34;519456;28;809;-47
2023/04/13 12:45:48;;;;;;;3.00;2.03;;;;;;;22.85;24.43;92538.59;518352;28;1695;-47
2023/04/13 12:46:03;;;;;;;2.90;2.05;;;;;;;22.86;24.40;92534.38;517642;28;1059;-48
2023/04/13 12:46:19;;;;;;;2.50;1.85;;;;;;;22.89;23.42;92533.78;518250;28;863;-47
2023/04/13 12:46:35;;;;;;;2.50;1.88;;;;;;;22.91;23.25;92531.06;517362;28;881;-46
2023/04/13 12:46:51;;;;;;;2.07;1.80;;;;;;;22.93;23.85;92530.41;517682;28;1524;-46
2023/04/13 12:47:06;;;;;;;1.95;1.77;;;;;;;22.91;23.88;92531.06;517952;28;891;-48
2023/04/13 12:47:23;;;;;;;1.97;1.73;;;;;;;22.91;23.89;92528.25;519371;28;885;-47
2023/04/13 12:47:38;;;;;;;3.25;2.15;;;;;;;22.96;23.99;92529.09;519359;28;1150;-46
2023/04/13 12:47:54;;;;;;;3.87;2.27;;;;;;;22.95;24.62;92522.03;518384;28;1421;-47
2023/04/13 12:48:09;;;;;;;3.97;2.03;;;;;;;22.92;23.57;92526.88;518490;28;1294;-47
2023/04/13 12:48:25;;;;;;;4.77;2.10;;;;;;;22.88;23.38;92521.09;518555;28;1773;-46
2023/04/13 12:48:41;;;;;;;6.32;2.20;;;;;;;22.87;23.93;92524.59;518279;28;852;-46
2023/04/13 12:48:56;;;;;;;4.90;2.05;;;;;;;22.83;25.41;92530.78;518993;28;1369;-46
2023/04/13 12:49:12;;;;;;;2.90;2.07;;;;;;;22.84;25.81;92526.59;519309;28;895;-47
2023/04/13 12:49:27;;;;;;;2.97;2.10;;;;;;;22.84;26.36;92532.25;518998;28;853;-46
2023/04/13 12:49:43;;;;;;;3.10;2.45;;;;;;;22.83;28.84;92536.41;517840;28;1012;-48
2023/04/13 12:49:58;;;;;;;4.57;2.87;;;;;;;22.84;28.52;92531.50;519452;28;883;-47
2023/04/13 12:50:13;;;;;;;4.97;2.83;;;;;;;22.81;28.93;92532.81;519337;28;858;-48
2023/04/13 12:50:30;;;;;;;4.40;2.83;;;;;;;22.81;27.91;92530.00;518082;28;1758;-47
2023/04/13 12:50:45;;;;;;;5.88;2.55;;;;;;;22.76;26.43;92534.06;517444;28;818;-48
2023/04/13 12:51:01;;;;;;;5.32;2.42;;;;;;;22.77;27.04;92527.75;519018;28;1730;-47
2023/04/13 12:51:16;;;;;;;4.10;2.53;;;;;;;22.80;27.18;92529.28;518518;28;1007;-47
2023/04/13 12:51:31;;;;;;;4.60;2.57;;;;;;;22.80;27.26;92528.56;517363;28;844;-47
2023/04/13 12:51:47;;;;;;;4.93;2.33;;;;;;;22.81;27.34;92530.72;518140;28;836;-47
2023/04/13 12:52:02;;;;;;;5.03;2.30;;;;;;;22.80;28.22;92528.56;519411;28;904;-46
2023/04/13 12:52:18;;;;;;;4.65;2.40;;;;;;;22.79;27.86;92527.09;517647;28;789;-47
2023/04/13 12:52:36;;;;;;;4.50;2.60;;;;;;;22.79;28.19;92527.84;517337;28;872;-47
2023/04/13 12:52:52;;;;;;;3.20;2.40;;;;;;;22.82;28.09;92523.72;519176;28;985;-47
2023/04/13 12:53:07;;;;;;;3.25;2.25;;;;;;;22.83;27.62;92535.69;518903;28;891;-48
2023/04/13 12:53:23;;;;;;;3.30;2.30;;;;;;;22.87;27.72;92528.09;517333;28;852;-47
2023/04/13 12:53:38;;;;;;;3.80;2.30;;;;;;;22.90;27.27;92529.63;517385;28;808;-47
2023/04/13 12:53:53;;;;;;;4.00;2.30;;;;;;;22.89;27.01;92519.72;518296;28;1913;-47
2023/04/13 12:54:12;;;;;;;3.87;2.23;;;;;;;22.94;27.06;92526.94;518055;28;852;-47
2023/04/13 12:54:29;;;;;;;5.43;2.20;;;;;;;22.93;26.24;92528.31;517434;28;959;-49
2023/04/13 12:54:44;;;;;;;4.85;2.22;;;;;;;22.90;25.66;92534.53;517654;28;933;-48
2023/04/13 12:55:01;;;;;;;3.97;2.60;;;;;;;22.92;26.81;92526.16;518228;28;1223;-46
2023/04/13 12:55:17;;;;;;;2.97;2.58;;;;;;;22.92;28.68;92523.34;518198;28;978;-46
2023/04/13 12:55:32;;;;;;;2.95;2.33;;;;;;;22.90;29.58;92523.25;517400;28;968;-47
2023/04/13 12:55:47;;;;;;;4.20;2.47;;;;;;;22.90;28.79;92524.00;518042;28;992;-48
2023/04/13 12:56:03;;;;;;;5.70;2.70;;;;;;;22.94;28.29;92524.13;519403;28;976;-47
2023/04/13 12:56:18;;;;;;;5.18;2.78;;;;;;;22.98;27.57;92524.25;519357;28;829;-46
2023/04/13 12:56:34;;;;;;;4.43;3.00;;;;;;;22.97;26.96;92519.28;517737;28;1766;-47
2023/04/13 12:56:49;;;;;;;5.17;3.13;;;;;;;23.06;25.62;92532.25;518565;28;777;-48
2023/04/13 12:57:05;;;;;;;6.40;3.10;;;;;;;23.09;26.13;92523.22;516248;28;825;-47
2023/04/13 12:57:21;;;;;;;6.35;3.10;;;;;;;23.12;26.74;92521.19;516104;28;932;-47
2023/04/13 12:57:38;;;;;;;4.50;2.90;;;;;;;23.15;27.12;92523.41;516091;28;1123;-47
2023/04/13 12:57:53;;;;;;;4.18;2.58;;;;;;;23.17;26.62;92526.28;517596;28;951;-47
2023/04/13 12:58:09;;;;;;;4.10;2.50;;;;;;;23.20;26.20;92521.47;518038;28;812;-46
2023/04/13 12:58:25;;;;;;;3.60;2.38;;;;;;;23.22;26.45;92529.97;518113;28;865;-46
2023/04/13 12:58:40;;;;;;;4.05;2.35;;;;;;;23.16;27.18;92527.69;516647;28;1226;-48
2023/04/13 12:58:55;;;;;;;4.40;2.77;;;;;;;23.19;27.38;92534.09;518079;28;824;-48
2023/04/13 12:59:11;;;;;;;3.47;2.47;;;;;;;23.19;27.49;92534.84;517965;28;781;-48
2023/04/13 12:59:26;;;;;;;2.55;2.13;;;;;;;23.14;27.68;92522.00;518008;28;1219;-47
2023/04/13 12:59:42;;;;;;;2.30;2.10;;;;;;;23.23;27.08;92528.59;516719;28;915;-48
2023/04/13 12:59:58;;;;;;;2.65;1.90;;;;;;;23.21;25.76;92525.72;518154;28;888;-47
2023/04/13 13:00:14;;;;;;;4.60;2.00;;;;;;;23.21;25.74;92520.81;518041;28;835;-47
2023/04/13 13:00:30;;;;;;;3.17;2.08;;;;;;;23.24;26.00;92530.75;518005;28;836;-48
2023/04/13 13:00:45;;;;;;;11.80;2.33;;;;;;;23.26;26.50;92521.66;517110;28;809;-48
2023/04/13 13:01:01;;;;;;;11.90;2.25;;;;;;;23.28;26.52;92525.25;517237;28;1722;-48
2023/04/13 13:01:17;;;;;;;3.42;2.10;;;;;;;23.28;26.50;92525.25;517730;28;821;-49
2023/04/13 13:01:36;;;;;;;3.00;2.07;;;;;;;23.25;25.80;92520.22;516690;28;853;-48
2023/04/13 13:01:51;;;;;;;1.83;1.65;;;;;;;23.24;25.38;92521.59;517318;28;912;-49
2023/04/13 13:02:06;;;;;;;1.83;1.73;;;;;;;23.20;25.34;92521.47;517843;28;1028;-48
2023/04/13 13:02:29;;;;;;;3.22;2.05;;;;;;;23.22;25.66;92525.06;517743;28;1726;-47
2023/04/13 13:02:45;;;;;;;3.13;1.90;;;;;;;23.22;25.59;92527.16;519438;28;861;-49
2023/04/13 13:03:03;;;;;;;3.10;2.10;;;;;;;23.23;25.67;92517.34;515911;28;884;-48
2023/04/13 13:03:18;;;;;;;3.60;2.15;;;;;;;23.23;25.95;92523.69;517903;28;893;-48
2023/04/13 13:03:35;;;;;;;2.92;1.90;;;;;;;23.24;24.59;92525.13;517825;28;824;-49
2023/04/13 13:03:50;;;;;;;3.40;2.15;;;;;;;23.25;25.29;92525.84;518537;28;1071;-48
2023/04/13 13:04:06;;;;;;;3.20;2.20;;;;;;;23.26;25.95;92522.38;517924;28;1741;-48
2023/04/13 13:04:21;;;;;;;4.07;2.20;;;;;;;23.25;26.86;92523.75;516728;28;1075;-47
2023/04/13 13:04:37;;;;;;;4.90;2.10;;;;;;;23.23;26.75;92518.06;516879;28;977;-47
2023/04/13 13:04:55;;;;;;;3.30;2.00;;;;;;;23.24;25.96;92524.41;518080;28;856;-47
2023/04/13 13:05:11;;;;;;;2.58;2.30;;;;;;;23.22;26.98;92524.34;517082;28;1740;-47
2023/04/13 13:05:26;;;;;;;3.83;2.13;;;;;;;22.88;23.70;92512.66;517478;28;1939;-47
2023/04/13 13:05:42;;;;;;;3.77;1.80;;;;;;;22.69;23.66;92518.31;517861;28;833;-47
2023/04/13 13:05:57;;;;;;;2.92;1.80;;;;;;;22.69;24.60;92515.50;516342;28;853;-48
2023/04/13 13:06:12;;;;;;;2.93;1.70;;;;;;;22.72;25.02;92519.84;516468;28;889;-49